Time;durP1;ratioP1;P1;durP2;ratioP2;P2;SDS_P1;SDS_P2;PMS_P1;PMS_P2;Temp;Humidity;BMP_temperature;BMP_pressure;BME280_temperature;BME280_humidity;BME280_pressure;Samples;Min_cycle;Max_cycle;Signal;HPM_P1;HPM_P2
2024/04/09 00:02:13;;;;;;;1.33;1.20;;;18.20;51.40;213.40;229858.00;;;;5346703;26;20241;-56
2024/04/09 00:04:42;;;;;;;2.30;1.60;;;18.10;51.40;213.40;229858.00;;;;5346863;26;20285;-56
2024/04/09 00:07:08;;;;;;;2.20;1.23;;;18.20;51.40;213.40;229858.00;;;;5345637;26;20320;-56
2024/04/09 00:09:42;;;;;;;1.00;0.90;;;18.20;51.40;213.40;229858.00;;;;5346035;26;20898;-56
2024/04/09 00:12:09;;;;;;;0.90;0.90;;;18.10;51.40;213.40;229858.00;;;;5346232;26;20288;-56
2024/04/09 00:14:47;;;;;;;1.50;1.20;;;18.10;51.40;213.40;229858.00;;;;5346130;26;20351;-56
2024/04/09 00:17:18;;;;;;;2.07;1.30;;;18.10;51.40;213.40;229858.00;;;;5345601;26;20293;-56
2024/04/09 00:19:49;;;;;;;2.20;1.40;;;18.10;51.40;213.40;229858.00;;;;5346649;26;20237;-56
2024/04/09 00:22:15;;;;;;;1.37;1.20;;;18.10;51.40;213.40;229858.00;;;;5346100;26;20702;-56
2024/04/09 00:24:48;;;;;;;1.20;1.10;;;18.10;51.40;213.40;229858.00;;;;5346123;26;20241;-56
2024/04/09 00:27:14;;;;;;;1.30;1.20;;;18.10;51.40;213.40;229858.00;;;;5346224;26;20234;-56
2024/04/09 00:29:44;;;;;;;1.60;1.20;;;18.10;51.50;213.40;229858.00;;;;5345710;26;20280;-56
2024/04/09 00:32:10;;;;;;;3.43;1.47;;;18.10;51.40;213.40;229858.00;;;;5350683;26;20294;-56
2024/04/09 00:34:38;;;;;;;1.43;1.23;;;18.10;51.50;213.40;229858.00;;;;5370342;26;20248;-56
2024/04/09 00:37:04;;;;;;;2.73;1.53;;;18.10;51.40;213.40;229858.00;;;;5345393;26;20801;-56
2024/04/09 00:39:34;;;;;;;1.50;1.27;;;18.10;51.50;213.40;229858.00;;;;5345600;26;20239;-57
2024/04/09 00:42:02;;;;;;;2.07;1.20;;;18.10;51.50;213.40;229858.00;;;;5346293;26;20363;-57
2024/04/09 00:44:34;;;;;;;2.83;1.33;;;18.10;51.50;213.40;229858.00;;;;5345605;26;21117;-56
2024/04/09 00:47:00;;;;;;;1.90;1.13;;;18.10;51.50;213.40;229858.00;;;;5345133;26;20570;-56
2024/04/09 00:49:29;;;;;;;1.23;0.97;;;18.10;51.50;213.40;229858.00;;;;5354097;26;20279;-56
2024/04/09 00:51:55;;;;;;;2.53;1.33;;;18.00;51.30;213.40;229858.00;;;;5347035;26;20884;-56
2024/04/09 00:54:25;;;;;;;1.53;1.30;;;18.00;51.40;213.40;229858.00;;;;5345824;26;20764;-56
2024/04/09 00:56:52;;;;;;;1.00;1.00;;;18.00;51.40;213.40;229858.00;;;;5345929;26;20706;-56
2024/04/09 00:59:24;;;;;;;1.60;1.30;;;18.10;51.50;213.40;229858.00;;;;5344530;26;20237;-57
2024/04/09 01:01:51;;;;;;;1.30;1.00;;;18.00;51.40;213.40;229858.00;;;;5345337;26;20349;-56
2024/04/09 01:04:20;;;;;;;1.30;1.20;;;18.00;51.40;213.40;229858.00;;;;5359714;26;20253;-56
2024/04/09 01:06:47;;;;;;;2.90;1.47;;;18.00;51.40;213.40;229858.00;;;;5345447;26;20383;-56
2024/04/09 01:09:16;;;;;;;1.73;1.30;;;18.00;51.50;213.40;229858.00;;;;5373651;26;20245;-56
2024/04/09 01:11:42;;;;;;;1.30;1.20;;;18.00;51.40;213.40;229858.00;;;;5345990;26;20376;-56
2024/04/09 01:14:11;;;;;;;2.30;1.40;;;18.00;51.40;213.40;229858.00;;;;5345183;26;20802;-56
2024/04/09 01:16:40;;;;;;;1.40;1.20;;;18.00;51.50;213.40;229858.00;;;;5345135;26;20708;-56
2024/04/09 01:19:08;;;;;;;1.20;1.10;;;18.00;51.50;213.40;229858.00;;;;5362623;26;20347;-56
2024/04/09 01:21:34;;;;;;;1.40;1.20;;;18.00;51.50;213.40;229858.00;;;;5380148;26;20840;-56
2024/04/09 01:24:06;;;;;;;2.07;1.27;;;18.00;51.50;213.40;229858.00;;;;5378348;26;20244;-56
2024/04/09 01:26:34;;;;;;;1.10;1.00;;;18.00;51.50;213.40;229858.00;;;;5355125;26;20299;-57
2024/04/09 01:29:03;;;;;;;1.90;1.13;;;18.00;51.50;213.40;229858.00;;;;5379096;26;20241;-57
2024/04/09 01:31:29;;;;;;;2.10;1.30;;;18.00;51.50;213.40;229858.00;;;;5379976;26;20320;-57
2024/04/09 01:33:58;;;;;;;1.30;1.13;;;18.00;51.50;213.40;229858.00;;;;5380118;26;20630;-57
2024/04/09 01:36:26;;;;;;;2.47;1.40;;;18.00;51.50;213.40;229858.00;;;;5346436;26;20414;-57
2024/04/09 01:38:55;;;;;;;1.77;1.27;;;18.00;51.50;213.40;229858.00;;;;5344207;26;20249;-57
2024/04/09 01:41:24;;;;;;;1.67;1.27;;;18.00;51.50;213.40;229858.00;;;;5358591;26;20383;-57
2024/04/09 01:43:52;;;;;;;1.33;1.17;;;18.00;51.50;213.40;229858.00;;;;5345126;26;20289;-57
2024/04/09 01:46:19;;;;;;;1.77;1.23;;;18.00;51.50;213.40;229858.00;;;;5345056;26;20796;-57
2024/04/09 01:48:47;;;;;;;1.80;1.30;;;18.00;51.50;213.40;229858.00;;;;5344204;26;20246;-57
2024/04/09 01:51:13;;;;;;;1.63;1.23;;;17.90;51.50;213.40;229858.00;;;;5345381;26;20360;-57
2024/04/09 01:53:46;;;;;;;1.77;1.17;;;18.00;51.60;213.40;229858.00;;;;5344963;26;20312;-57
2024/04/09 01:56:13;;;;;;;2.03;1.30;;;17.90;51.60;213.40;229858.00;;;;5358918;26;20248;-57
2024/04/09 01:58:46;;;;;;;1.93;1.40;;;18.00;51.60;213.40;229858.00;;;;5354189;26;20277;-57
2024/04/09 02:01:12;;;;;;;2.10;1.10;;;17.90;51.60;213.40;229858.00;;;;5365132;26;20276;-57
2024/04/09 02:03:42;;;;;;;1.77;1.33;;;17.90;51.60;213.40;229858.00;;;;5369670;26;20717;-57
2024/04/09 02:06:16;;;;;;;1.90;1.30;;;17.90;51.60;213.40;229858.00;;;;5356080;26;20300;-57
2024/04/09 02:08:45;;;;;;;2.93;1.00;;;17.90;51.60;213.40;229858.00;;;;5369284;26;20337;-57
2024/04/09 02:11:12;;;;;;;1.47;1.00;;;17.90;51.60;213.40;229858.00;;;;5364452;26;20312;-57
2024/04/09 02:13:47;;;;;;;1.90;1.30;;;17.90;51.60;213.40;229858.00;;;;5369333;26;20300;-57
2024/04/09 02:16:16;;;;;;;1.67;1.10;;;17.90;51.60;213.40;229858.00;;;;5358885;26;20776;-57
2024/04/09 02:18:45;;;;;;;2.97;1.20;;;17.90;51.60;213.40;229858.00;;;;5343269;26;20237;-57
2024/04/09 02:21:11;;;;;;;1.67;1.30;;;17.90;51.60;213.40;229858.00;;;;5344904;26;20241;-57
2024/04/09 02:23:40;;;;;;;1.90;1.20;;;17.90;51.70;213.40;229858.00;;;;5344392;26;20291;-57
2024/04/09 02:26:06;;;;;;;1.27;1.17;;;17.90;51.70;213.40;229858.00;;;;5344890;26;20365;-57
2024/04/09 02:28:35;;;;;;;1.70;1.30;;;17.90;51.70;213.40;229858.00;;;;5343693;26;20238;-57
2024/04/09 02:31:04;;;;;;;1.30;1.20;;;17.90;51.70;213.40;229858.00;;;;5344333;26;20295;-57
2024/04/09 02:33:33;;;;;;;1.80;1.20;;;17.90;51.70;213.40;229858.00;;;;5344812;26;20232;-57
2024/04/09 02:36:04;;;;;;;2.07;1.40;;;17.90;51.70;213.40;229858.00;;;;5344022;26;20241;-57
2024/04/09 02:38:35;;;;;;;1.77;1.47;;;17.90;51.70;213.40;229858.00;;;;5343296;26;20233;-57
2024/04/09 02:41:04;;;;;;;2.37;1.57;;;17.90;51.70;213.40;229858.00;;;;5343957;26;20291;-57
2024/04/09 02:43:30;;;;;;;1.47;1.20;;;17.90;51.70;213.40;229858.00;;;;5343793;26;20801;-57
2024/04/09 02:45:59;;;;;;;1.67;1.50;;;17.90;51.80;213.40;229858.00;;;;5343995;26;20276;-57
2024/04/09 02:48:28;;;;;;;1.97;1.30;;;17.90;51.70;213.40;229858.00;;;;5343723;26;20590;-57
2024/04/09 02:51:00;;;;;;;1.87;1.40;;;17.80;51.60;213.40;229858.00;;;;5343968;26;20245;-57
2024/04/09 02:53:27;;;;;;;3.30;1.40;;;17.90;51.80;213.40;229858.00;;;;5350322;26;20288;-57
2024/04/09 02:56:03;;;;;;;1.30;1.20;;;17.80;51.70;213.40;229858.00;;;;5364223;26;20241;-57
2024/04/09 02:58:29;;;;;;;2.37;1.30;;;17.80;51.70;213.40;229858.00;;;;5364188;26;20342;-57
2024/04/09 03:01:00;;;;;;;1.30;1.20;;;17.80;51.70;213.40;229858.00;;;;5378699;26;20244;-57
2024/04/09 03:03:29;;;;;;;1.83;1.33;;;17.80;51.70;213.40;229858.00;;;;5378851;26;20340;-57
2024/04/09 03:05:57;;;;;;;2.30;1.40;;;17.80;51.70;213.40;229858.00;;;;5359958;26;20746;-57
2024/04/09 03:08:23;;;;;;;1.80;1.37;;;17.80;51.70;213.40;229858.00;;;;5342963;26;20289;-57
2024/04/09 03:10:52;;;;;;;1.40;1.30;;;17.80;51.80;213.40;229858.00;;;;5344363;26;20351;-57
2024/04/09 03:13:18;;;;;;;1.37;1.20;;;17.80;51.70;213.40;229858.00;;;;5343252;26;20285;-57
2024/04/09 03:15:46;;;;;;;2.80;1.40;;;17.80;51.70;213.40;229858.00;;;;5353821;26;20345;-57
2024/04/09 03:18:12;;;;;;;1.97;1.20;;;17.80;52.40;213.40;229858.00;;;;5360802;26;20849;-57
2024/04/09 03:20:44;;;;;;;1.93;1.40;;;17.80;51.70;213.40;229858.00;;;;5344064;26;20237;-57
2024/04/09 03:23:10;;;;;;;2.30;1.53;;;17.80;51.70;213.40;229858.00;;;;5345228;26;20684;-57
2024/04/09 03:25:39;;;;;;;2.57;1.40;;;17.80;51.70;213.40;229858.00;;;;5347784;26;20241;-57
2024/04/09 03:28:05;;;;;;;2.30;1.30;;;17.80;51.70;213.40;229858.00;;;;5345772;26;20297;-57
2024/04/09 03:30:33;;;;;;;1.53;1.20;;;17.80;51.70;213.40;229858.00;;;;5346761;26;20784;-57
2024/04/09 03:32:59;;;;;;;1.30;1.20;;;17.80;51.80;213.40;229858.00;;;;5346960;26;20241;-57
2024/04/09 03:35:28;;;;;;;1.93;1.20;;;17.80;51.80;213.40;229858.00;;;;5346766;26;20283;-57
2024/04/09 03:37:59;;;;;;;1.37;1.20;;;17.80;51.70;213.40;229858.00;;;;5360283;26;20297;-57
2024/04/09 03:40:28;;;;;;;2.13;1.40;;;17.80;51.80;213.40;229858.00;;;;5347494;26;20877;-57
2024/04/09 03:42:56;;;;;;;1.77;1.20;;;17.70;51.70;213.40;229858.00;;;;5346852;26;20294;-57
2024/04/09 03:45:22;;;;;;;2.03;1.57;;;17.80;51.80;213.40;229858.00;;;;5346792;26;20355;-57
2024/04/09 03:47:51;;;;;;;1.57;1.40;;;17.70;51.80;213.40;229858.00;;;;5345789;26;20253;-57
2024/04/09 03:50:17;;;;;;;1.63;1.43;;;17.70;51.70;213.40;229858.00;;;;5349348;26;21113;-57
2024/04/09 03:52:45;;;;;;;1.63;1.10;;;17.70;51.80;213.40;229858.00;;;;5372462;26;20253;-57
2024/04/09 03:55:14;;;;;;;1.50;1.30;;;17.70;51.80;213.40;229858.00;;;;5371586;26;20308;-57
2024/04/09 03:57:43;;;;;;;2.07;1.20;;;17.70;51.80;213.40;229858.00;;;;5345646;26;20233;-57
2024/04/09 04:00:12;;;;;;;1.33;1.23;;;17.70;51.80;213.40;229858.00;;;;5346175;26;20284;-57
2024/04/09 04:02:40;;;;;;;1.20;1.07;;;17.70;51.80;213.40;229858.00;;;;5346424;26;20309;-57
2024/04/09 04:05:07;;;;;;;1.67;1.57;;;17.70;51.80;213.40;229858.00;;;;5347131;26;20245;-57
2024/04/09 04:07:35;;;;;;;2.23;1.40;;;17.70;51.80;213.40;229858.00;;;;5345303;26;20271;-57
2024/04/09 04:10:01;;;;;;;1.47;1.20;;;17.70;51.80;213.40;229858.00;;;;5347040;26;20293;-57
2024/04/09 04:12:33;;;;;;;2.10;1.50;;;17.70;51.80;213.40;229858.00;;;;5346598;26;20242;-57
2024/04/09 04:14:58;;;;;;;2.17;1.40;;;17.70;51.80;213.40;229858.00;;;;5346600;26;20304;-57
2024/04/09 04:17:27;;;;;;;3.00;1.40;;;17.70;51.80;213.40;229858.00;;;;5345662;26;20913;-57
2024/04/09 04:19:56;;;;;;;1.50;1.10;;;17.70;52.50;213.40;229858.00;;;;5346452;26;20237;-57
2024/04/09 04:22:22;;;;;;;2.63;1.30;;;17.70;51.80;213.40;229858.00;;;;5346481;26;20347;-57
2024/04/09 04:24:51;;;;;;;2.27;1.37;;;17.70;51.80;213.40;229858.00;;;;5346289;26;20279;-57
2024/04/09 04:27:17;;;;;;;2.00;1.27;;;17.70;51.80;213.40;229858.00;;;;5346618;26;20233;-57
2024/04/09 04:29:48;;;;;;;3.50;1.50;;;17.70;51.80;213.40;229858.00;;;;5345918;26;20809;-57
2024/04/09 04:32:15;;;;;;;2.33;1.20;;;17.70;51.80;213.40;229858.00;;;;5346371;26;20718;-57
2024/04/09 04:34:43;;;;;;;2.10;1.47;;;17.70;51.80;213.40;229858.00;;;;5346413;26;20241;-57
2024/04/09 04:37:10;;;;;;;2.73;1.47;;;17.70;51.80;213.40;229858.00;;;;5360503;26;20329;-57
2024/04/09 04:39:38;;;;;;;1.40;1.30;;;17.70;51.80;213.40;229858.00;;;;5359931;26;20596;-57
2024/04/09 04:42:07;;;;;;;1.30;1.20;;;17.70;51.80;213.40;229858.00;;;;5347003;26;20245;-57
2024/04/09 04:44:36;;;;;;;2.47;1.37;;;17.70;51.90;213.40;229858.00;;;;5366695;26;20725;-57
2024/04/09 04:47:05;;;;;;;2.47;1.53;;;17.70;51.80;213.40;229858.00;;;;5380713;26;20300;-57
2024/04/09 04:49:33;;;;;;;2.80;1.53;;;17.70;51.80;213.40;229858.00;;;;5347100;26;20272;-57
2024/04/09 04:51:59;;;;;;;2.13;1.40;;;17.70;51.80;213.40;229858.00;;;;5346197;26;20696;-57
2024/04/09 04:54:28;;;;;;;1.83;1.37;;;17.70;51.80;213.40;229858.00;;;;5345739;26;20249;-57
2024/04/09 04:56:54;;;;;;;2.00;1.43;;;17.60;51.80;213.40;229858.00;;;;5346593;26;20352;-57
2024/04/09 04:59:23;;;;;;;1.93;1.20;;;17.70;51.80;213.40;229858.00;;;;5345076;26;20249;-57
2024/04/09 05:01:49;;;;;;;2.73;1.60;;;17.60;51.70;213.40;229858.00;;;;5346491;26;20304;-57
2024/04/09 05:04:20;;;;;;;2.20;1.33;;;17.60;51.70;213.40;229858.00;;;;5345865;26;20241;-57
2024/04/09 05:06:46;;;;;;;2.93;1.60;;;17.60;51.70;213.40;229858.00;;;;5346107;26;20301;-57
2024/04/09 05:09:17;;;;;;;4.20;1.60;;;17.60;51.80;213.40;229858.00;;;;5359163;26;20240;-57
2024/04/09 05:11:43;;;;;;;1.27;1.10;;;17.60;51.80;213.40;229858.00;;;;5346332;26;20249;-57
2024/04/09 05:14:12;;;;;;;3.37;1.50;;;17.70;51.80;213.40;229858.00;;;;5345415;26;20311;-57
2024/04/09 05:16:38;;;;;;;1.67;1.20;;;17.60;51.70;213.40;229858.00;;;;5345499;26;20246;-57
2024/04/09 05:19:07;;;;;;;2.10;1.33;;;17.60;51.80;213.40;229858.00;;;;5348944;26;20245;-57
2024/04/09 05:21:35;;;;;;;2.03;1.40;;;17.60;51.70;213.40;229858.00;;;;5364935;26;20315;-57
2024/04/09 05:24:04;;;;;;;2.30;1.40;;;17.60;51.70;213.40;229858.00;;;;5380015;26;20271;-57
2024/04/09 05:26:30;;;;;;;1.47;1.30;;;17.60;51.70;213.40;229858.00;;;;5356050;26;20341;-57
2024/04/09 05:28:59;;;;;;;1.57;1.37;;;17.60;51.80;213.40;229858.00;;;;5344606;26;20304;-57
2024/04/09 05:31:25;;;;;;;2.03;1.60;;;17.60;51.70;213.40;229858.00;;;;5345004;26;20368;-57
2024/04/09 05:33:54;;;;;;;1.40;1.13;;;17.60;51.70;213.40;229858.00;;;;5360346;26;20742;-57
2024/04/09 05:36:21;;;;;;;1.40;1.30;;;17.60;51.70;213.40;229858.00;;;;5359441;26;20784;-57
2024/04/09 05:38:52;;;;;;;1.73;1.40;;;17.60;51.70;213.40;229858.00;;;;5352437;26;20717;-57
2024/04/09 05:41:18;;;;;;;2.50;1.60;;;17.70;51.80;213.40;229858.00;;;;5355124;26;20318;-57
2024/04/09 05:43:47;;;;;;;2.50;1.60;;;17.70;51.80;213.40;229858.00;;;;5358250;26;20641;-57
2024/04/09 05:46:13;;;;;;;2.17;1.60;;;17.70;51.80;213.40;229858.00;;;;5358408;26;20395;-57
2024/04/09 05:48:42;;;;;;;2.70;1.63;;;17.60;51.70;213.40;229858.00;;;;5354978;26;20283;-57
2024/04/09 05:51:08;;;;;;;2.10;1.37;;;17.70;51.80;213.40;229858.00;;;;5367144;26;20367;-57
2024/04/09 05:53:36;;;;;;;3.27;2.07;;;17.70;51.80;213.40;229858.00;;;;5374127;26;20253;-57
2024/04/09 05:56:05;;;;;;;2.37;1.80;;;17.70;51.70;213.40;229858.00;;;;5354720;26;20304;-57
2024/04/09 05:58:34;;;;;;;2.93;1.80;;;17.70;51.70;213.40;229858.00;;;;5358822;26;20317;-57
2024/04/09 06:01:00;;;;;;;2.47;1.60;;;17.70;51.70;213.40;229858.00;;;;5370520;26;20588;-57
2024/04/09 06:03:29;;;;;;;1.37;1.27;;;17.70;51.70;213.40;229858.00;;;;5376971;26;20283;-57
2024/04/09 06:05:59;;;;;;;2.00;1.60;;;17.70;51.70;213.40;229858.00;;;;5345572;26;20245;-57
2024/04/09 06:08:25;;;;;;;1.60;1.30;;;17.70;51.60;213.40;229858.00;;;;5346588;26;20280;-57
2024/04/09 06:10:54;;;;;;;1.87;1.43;;;17.70;51.60;213.40;229858.00;;;;5365775;26;20342;-57
2024/04/09 06:13:23;;;;;;;3.10;1.50;;;17.70;51.60;213.40;229858.00;;;;5344722;26;20333;-57
2024/04/09 06:15:51;;;;;;;1.93;1.40;;;17.80;51.60;213.40;229858.00;;;;5344809;26;20243;-57
2024/04/09 06:18:17;;;;;;;1.50;1.30;;;17.80;51.60;213.40;229858.00;;;;5343586;26;20365;-57
2024/04/09 06:20:48;;;;;;;1.77;1.60;;;17.80;51.60;213.40;229858.00;;;;5345274;26;20610;-57
2024/04/09 06:23:14;;;;;;;2.30;1.60;;;17.80;51.50;213.40;229858.00;;;;5344703;26;20335;-57
2024/04/09 06:25:42;;;;;;;1.70;1.60;;;17.80;51.50;213.40;229858.00;;;;5344730;26;20233;-57
2024/04/09 06:28:08;;;;;;;3.23;1.73;;;17.80;51.50;213.40;229858.00;;;;5343642;26;20301;-57
2024/04/09 06:30:40;;;;;;;2.27;1.30;;;17.90;51.50;213.40;229858.00;;;;5344530;26;20697;-57
2024/04/09 06:33:06;;;;;;;2.70;1.57;;;17.90;51.50;213.40;229858.00;;;;5344116;26;20263;-57
2024/04/09 06:35:35;;;;;;;1.90;1.57;;;17.90;51.50;213.40;229858.00;;;;5344810;26;20242;-57
2024/04/09 06:38:01;;;;;;;2.50;1.47;;;17.90;51.50;213.40;229858.00;;;;5343664;26;20233;-57
2024/04/09 06:40:30;;;;;;;3.77;1.80;;;17.90;51.40;213.40;229858.00;;;;5344373;26;20245;-57
2024/04/09 06:42:56;;;;;;;2.40;1.23;;;17.90;51.40;213.40;229858.00;;;;5344349;26;20661;-57
2024/04/09 06:45:25;;;;;;;1.30;1.20;;;18.00;51.30;213.40;229858.00;;;;5344400;26;20311;-57
2024/04/09 06:47:54;;;;;;;2.23;1.40;;;18.00;51.30;213.40;229858.00;;;;5343448;26;20360;-57
2024/04/09 06:58:10;;;;;;;3.50;1.40;;;18.10;51.20;213.40;229858.00;;;;6311528;21;20376;-56
2024/04/09 07:00:36;;;;;;;3.30;1.50;;;18.10;51.20;213.40;229858.00;;;;5377183;26;20249;-57
2024/04/09 07:03:07;;;;;;;2.30;1.40;;;18.10;51.10;213.40;229858.00;;;;5382368;26;20274;-57
2024/04/09 07:05:34;;;;;;;1.83;1.50;;;18.10;51.00;213.40;229858.00;;;;5379798;26;20240;-57
2024/04/09 07:08:03;;;;;;;2.10;1.30;;;18.10;51.00;213.40;229858.00;;;;5380913;26;20236;-57
2024/04/09 07:10:29;;;;;;;2.60;1.80;;;18.20;50.90;213.40;229858.00;;;;5375407;26;20723;-57
2024/04/09 07:12:58;;;;;;;1.93;1.50;;;18.20;50.80;213.40;229858.00;;;;5382134;26;20282;-57
2024/04/09 07:15:26;;;;;;;2.97;1.43;;;18.20;50.70;213.40;229858.00;;;;5382366;26;20788;-57
2024/04/09 07:17:55;;;;;;;1.93;1.53;;;18.20;50.70;213.40;229858.00;;;;5381640;26;20236;-57
2024/04/09 07:20:23;;;;;;;2.17;1.63;;;18.30;50.70;213.40;229858.00;;;;5370395;26;20243;-57
2024/04/09 07:22:52;;;;;;;1.47;1.37;;;18.30;50.60;213.40;229858.00;;;;5375179;26;20309;-57
2024/04/09 07:25:18;;;;;;;2.37;1.60;;;18.30;50.50;213.40;229858.00;;;;5369266;26;20342;-57
2024/04/09 07:27:47;;;;;;;1.43;1.33;;;18.30;50.50;213.40;229858.00;;;;5381363;26;20245;-65
2024/04/09 07:32:51;;;;;;;2.00;1.60;;;18.40;50.30;213.40;229858.00;;;;6296161;21;20292;-56
2024/04/09 07:35:17;;;;;;;2.67;1.40;;;18.40;50.30;213.40;229858.00;;;;5346637;26;20779;-57
2024/04/09 07:37:49;;;;;;;2.27;1.57;;;18.40;50.20;213.40;229858.00;;;;5346122;26;20308;-57
2024/04/09 07:40:15;;;;;;;2.27;1.60;;;18.40;50.10;213.40;229858.00;;;;5342190;26;20364;-57
2024/04/09 07:42:43;;;;;;;2.17;1.50;;;18.50;50.20;213.40;229858.00;;;;5345367;26;20238;-57
2024/04/09 07:45:10;;;;;;;1.30;1.20;;;18.50;50.20;213.40;229858.00;;;;5346834;26;20342;-57
2024/04/09 07:47:40;;;;;;;1.60;1.50;;;18.50;50.10;213.40;229858.00;;;;5355099;26;20234;-57
2024/04/09 07:50:09;;;;;;;1.50;1.30;;;18.50;50.00;213.40;229858.00;;;;5337552;26;20686;-57
2024/04/09 07:52:39;;;;;;;2.60;1.43;;;18.60;49.90;213.40;229858.00;;;;5343421;26;20237;-57
2024/04/09 07:55:08;;;;;;;2.57;1.43;;;18.60;49.90;213.40;229858.00;;;;5343610;26;20238;-57
2024/04/09 07:57:39;;;;;;;2.97;1.70;;;18.60;49.80;213.40;229858.00;;;;5342528;26;20238;-57
2024/04/09 08:00:13;;;;;;;1.60;1.50;;;18.60;49.80;213.40;229858.00;;;;5356726;26;20280;-57
2024/04/09 08:02:43;;;;;;;1.93;1.33;;;18.60;49.70;213.40;229858.00;;;;5381637;26;20291;-57
2024/04/09 08:05:09;;;;;;;2.67;1.30;;;18.70;49.70;213.40;229858.00;;;;5364526;26;20243;-65
2024/04/09 08:07:39;;;;;;;2.50;1.50;;;18.70;49.70;213.40;229858.00;;;;5344737;26;20246;-67
2024/04/09 08:12:49;;;;;;;2.10;1.37;;;18.70;49.50;213.40;229858.00;;;;6624858;21;20226;-56
2024/04/09 08:15:16;;;;;;;1.33;1.23;;;18.80;49.50;213.40;229858.00;;;;5389754;26;20740;-57
2024/04/09 08:17:47;;;;;;;1.93;1.40;;;18.80;49.50;213.40;229858.00;;;;5380620;26;20781;-57
2024/04/09 08:20:13;;;;;;;1.87;1.47;;;18.70;49.40;213.40;229858.00;;;;5391000;26;20267;-57
2024/04/09 08:22:41;;;;;;;1.23;1.13;;;18.80;49.40;213.40;229858.00;;;;5378964;26;20618;-57
2024/04/09 08:25:08;;;;;;;2.27;1.37;;;18.80;49.40;213.40;229858.00;;;;5377496;26;20388;-57
2024/04/09 08:27:40;;;;;;;1.90;1.47;;;18.80;49.30;213.40;229858.00;;;;5376345;26;20248;-57
2024/04/09 08:30:12;;;;;;;2.07;1.30;;;18.80;49.30;213.40;229858.00;;;;5381270;26;20243;-57
2024/04/09 08:32:42;;;;;;;2.60;1.67;;;18.80;49.40;213.40;229858.00;;;;5366423;26;20233;-57
2024/04/09 08:35:09;;;;;;;1.67;1.33;;;18.80;49.40;213.40;229858.00;;;;5376288;26;20280;-57
2024/04/09 08:37:37;;;;;;;1.70;1.20;;;18.80;49.40;213.40;229858.00;;;;5376208;26;20237;-57
2024/04/09 08:40:05;;;;;;;1.37;1.20;;;18.80;49.40;213.40;229858.00;;;;5378492;26;20331;-57
2024/04/09 08:42:38;;;;;;;1.73;1.43;;;18.80;49.40;213.40;229858.00;;;;5361259;26;20300;-57
2024/04/09 08:45:14;;;;;;;1.60;1.50;;;18.80;49.30;213.40;229858.00;;;;5381008;26;20303;-65
2024/04/09 08:47:43;;;;;;;1.70;1.60;;;18.90;49.40;213.40;229858.00;;;;5379505;26;20640;-57
2024/04/09 08:50:10;;;;;;;1.50;1.40;;;18.90;49.40;213.40;229858.00;;;;5378722;26;20236;-57
2024/04/09 08:52:39;;;;;;;1.73;1.50;;;18.90;49.40;213.40;229858.00;;;;5370998;26;20304;-57
2024/04/09 08:55:07;;;;;;;1.30;1.17;;;18.90;49.40;213.40;229858.00;;;;5377181;26;20234;-57
2024/04/09 08:57:36;;;;;;;2.00;1.40;;;18.90;49.30;213.40;229858.00;;;;5361209;26;20319;-57
2024/04/09 09:00:04;;;;;;;2.10;1.47;;;18.90;49.30;213.40;229858.00;;;;5372321;26;20292;-57
2024/04/09 09:02:36;;;;;;;1.40;1.30;;;18.90;49.30;213.40;229858.00;;;;5374462;26;20772;-57
2024/04/09 09:05:03;;;;;;;1.47;1.30;;;18.90;49.30;213.40;229858.00;;;;5366122;26;20237;-57
2024/04/09 09:07:32;;;;;;;1.70;1.40;;;18.90;49.30;213.40;229858.00;;;;5359746;26;20358;-57
2024/04/09 09:10:03;;;;;;;1.40;1.30;;;18.90;49.30;213.40;229858.00;;;;5378791;26;20237;-57
2024/04/09 09:12:31;;;;;;;1.37;1.27;;;18.90;49.20;213.40;229858.00;;;;5374906;26;20236;-57
2024/04/09 09:15:00;;;;;;;1.50;1.30;;;18.90;49.30;213.40;229858.00;;;;5367307;26;20686;-57
2024/04/09 09:17:30;;;;;;;1.30;1.20;;;19.00;49.20;213.40;229858.00;;;;5380106;26;20683;-65
2024/04/09 09:28:25;;;;;;;1.33;1.23;;;19.00;49.20;213.40;229858.00;;;;6164660;21;20311;-56
2024/04/09 09:30:54;;;;;;;3.17;1.53;;;19.00;49.20;213.40;229858.00;;;;5331504;26;20253;-57
2024/04/09 09:33:26;;;;;;;1.97;1.57;;;19.00;49.30;213.40;229858.00;;;;5311676;26;20233;-57
2024/04/09 09:35:54;;;;;;;1.97;1.53;;;19.00;49.20;213.40;229858.00;;;;5310724;26;20739;-57
2024/04/09 09:38:26;;;;;;;1.07;1.07;;;19.00;49.30;213.40;229858.00;;;;5310169;26;20254;-57
2024/04/09 09:40:53;;;;;;;1.93;1.50;;;19.00;49.20;213.40;229858.00;;;;5311302;26;20847;-57
2024/04/09 09:43:27;;;;;;;1.53;1.30;;;19.00;49.20;213.40;229858.00;;;;5311317;26;20246;-57
2024/04/09 09:45:54;;;;;;;1.57;1.30;;;19.00;49.20;213.40;229858.00;;;;5310807;26;20306;-57
2024/04/09 09:48:24;;;;;;;1.70;1.60;;;19.00;49.20;213.40;229858.00;;;;5309922;26;20245;-57
2024/04/09 09:50:51;;;;;;;1.33;1.20;;;19.00;49.30;213.40;229858.00;;;;5311462;26;20250;-57
2024/04/09 09:53:21;;;;;;;1.50;1.40;;;19.00;49.20;213.40;229858.00;;;;5310502;26;20244;-57
2024/04/09 09:55:52;;;;;;;1.30;1.20;;;19.00;49.30;213.40;229858.00;;;;5311421;26;20257;-57
2024/04/09 09:58:30;;;;;;;1.30;1.20;;;19.00;49.20;213.40;229858.00;;;;5309773;26;20747;-57
2024/04/09 10:08:46;;;;;;;2.17;1.40;;;19.00;49.30;213.40;229858.00;;;;5724294;21;20705;-56
2024/04/09 10:11:12;;;;;;;1.33;1.13;;;19.10;49.40;213.40;229858.00;;;;5335462;26;20308;-56
2024/04/09 10:13:52;;;;;;;1.30;1.20;;;19.10;49.40;213.40;229858.00;;;;5360327;26;20243;-57
2024/04/09 10:16:21;;;;;;;2.90;1.53;;;19.10;49.40;213.40;229858.00;;;;5379795;26;20569;-57
2024/04/09 10:18:50;;;;;;;1.40;1.30;;;19.10;49.40;213.40;229858.00;;;;5378921;26;20240;-57
2024/04/09 10:21:26;;;;;;;1.40;1.30;;;19.10;49.50;213.40;229858.00;;;;5353207;26;20257;-57
2024/04/09 10:24:01;;;;;;;2.03;1.30;;;19.10;49.40;213.40;229858.00;;;;5344789;26;20245;-57
2024/04/09 10:26:29;;;;;;;1.27;1.17;;;19.10;49.40;213.40;229858.00;;;;5334975;26;20563;-57
2024/04/09 10:29:08;;;;;;;1.30;1.10;;;19.10;49.40;213.40;229858.00;;;;5343771;26;20248;-57
2024/04/09 10:31:43;;;;;;;1.27;1.13;;;19.10;49.40;213.40;229858.00;;;;5345593;26;20293;-57
2024/04/09 10:34:12;;;;;;;1.30;1.20;;;19.10;49.50;213.40;229858.00;;;;5345167;26;20344;-57
2024/04/09 10:36:39;;;;;;;1.23;1.13;;;19.10;49.50;213.40;229858.00;;;;5342647;26;20291;-57
2024/04/09 10:39:09;;;;;;;1.10;1.10;;;19.10;49.50;213.40;229858.00;;;;5347037;26;20241;-65
2024/04/09 10:49:28;;;;;;;2.17;1.30;;;19.10;49.50;213.40;229858.00;;;;6165674;21;20905;-56
2024/04/09 10:51:54;;;;;;;1.20;1.10;;;19.10;49.50;213.40;229858.00;;;;5318175;26;20360;-57
2024/04/09 10:54:23;;;;;;;1.17;1.07;;;19.10;49.50;213.40;229858.00;;;;5313082;26;20298;-57
2024/04/09 10:56:58;;;;;;;1.97;1.37;;;19.10;49.50;213.40;229858.00;;;;5313694;26;20953;-57
2024/04/09 10:59:26;;;;;;;1.10;1.00;;;19.10;49.50;213.40;229858.00;;;;5337652;26;20331;-57
2024/04/09 11:01:53;;;;;;;1.20;1.10;;;19.10;49.50;213.40;229858.00;;;;5347119;26;20367;-57
2024/04/09 11:04:22;;;;;;;1.90;1.13;;;19.10;49.50;213.40;229858.00;;;;5338512;26;20376;-57
2024/04/09 11:06:51;;;;;;;1.90;1.30;;;19.10;49.50;213.40;229858.00;;;;5312750;26;20294;-57
2024/04/09 11:09:21;;;;;;;1.20;1.10;;;19.10;49.50;213.40;229858.00;;;;5311937;26;20248;-57
2024/04/09 11:11:48;;;;;;;1.80;1.30;;;19.10;49.50;213.40;229858.00;;;;5313536;26;20298;-57
2024/04/09 11:14:17;;;;;;;1.20;1.10;;;19.10;49.60;213.40;229858.00;;;;5335572;26;20244;-57
2024/04/09 11:16:46;;;;;;;1.80;1.20;;;19.10;49.60;213.40;229858.00;;;;5346969;26;20293;-57
2024/04/09 11:19:23;;;;;;;1.30;1.20;;;19.10;49.60;213.40;229858.00;;;;5340834;26;20234;-57
2024/04/09 11:21:52;;;;;;;1.13;1.10;;;19.10;49.50;213.40;229858.00;;;;5315349;26;20242;-57
2024/04/09 11:24:22;;;;;;;1.33;1.23;;;19.20;49.50;213.40;229858.00;;;;5347122;26;20429;-57